Sahovskaja, Russia
Current Conditions -  °F | °C
As of 3:00 PM on Friday 28 Nov 2014 (Local Time) from UUBW Reporting Station
Broken Clouds Broken Clouds  
Wind Chill:   Ceiling: 10000
Heat Index: 18°   Visibility: 5mi
Dew Point: 14°   Wind: 7mph
Humidity: 86%   Direction: 100°E
Pressure: 30.59"   Gusts: NA
Location:  56.03°N, 35.52°E
Report Text: UUBW 281200Z 10003MPS 8000 BKN100 M08/M10 Q1036 NOSIG RMKSC050
Loading
Personal Weather Stations






























Interactive Weather Map New forecast layout! Learn more

10-Day Weather Forecast

Advertisements
Track Severe Weather on mobile